Time;durP1;ratioP1;P1;durP2;ratioP2;P2;SDS_P1;SDS_P2;PMS_P1;PMS_P2;Temp;Humidity;BMP_temperature;BMP_pressure;BME280_temperature;BME280_humidity;BME280_pressure;Samples;Min_cycle;Max_cycle;Signal;HPM_P1;HPM_P2
2022/11/14 00:02:27;;;;;;;16.47;7.20;;;;;;;7.95;94.91;101783.31;122363;1108;104520;-74
2022/11/14 00:05:19;;;;;;;14.03;6.43;;;;;;;7.94;95.40;101782.42;122332;1109;104156;-74
2022/11/14 00:08:17;;;;;;;16.53;6.67;;;;;;;7.95;95.41;101776.41;122333;1108;104175;-74
2022/11/14 00:11:08;;;;;;;15.00;7.10;;;;;;;7.96;95.40;101775.58;122405;1109;104446;-74
2022/11/14 00:13:59;;;;;;;15.73;7.00;;;;;;;7.99;95.01;101787.96;122336;1109;104550;-75
2022/11/14 00:16:49;;;;;;;15.67;6.33;;;;;;;7.98;95.60;101781.84;122420;1107;104073;-74
2022/11/14 00:19:40;;;;;;;15.50;6.70;;;;;;;7.98;95.42;101779.22;122411;1108;104153;-74
2022/11/14 00:22:31;;;;;;;14.47;6.40;;;;;;;7.97;95.41;101776.51;122354;1108;104181;-73
2022/11/14 00:25:22;;;;;;;14.70;6.77;;;;;;;7.96;94.99;101774.69;122359;1108;104056;-74
2022/11/14 00:28:13;;;;;;;14.07;6.63;;;;;;;7.96;95.40;101780.81;122317;1109;104040;-74
2022/11/14 00:31:04;;;;;;;15.20;6.77;;;;;;;7.93;95.31;101775.38;122372;1108;104006;-74
2022/11/14 00:33:54;;;;;;;15.83;6.60;;;;;;;7.95;95.28;101778.09;122407;1109;104183;-74
2022/11/14 00:36:45;;;;;;;15.30;6.50;;;;;;;7.95;95.39;101772.86;122320;1108;108408;-74
2022/11/14 00:39:36;;;;;;;15.67;7.23;;;;;;;7.94;94.93;101771.08;122320;1109;104043;-75
2022/11/14 00:42:27;;;;;;;17.53;7.70;;;;;;;7.94;95.39;101774.58;122526;1109;104069;-76
2022/11/14 00:45:18;;;;;;;17.33;7.57;;;;;;;7.92;94.92;101771.87;122399;1109;104063;-74
2022/11/14 00:48:08;;;;;;;17.93;8.00;;;;;;;7.94;95.41;101771.08;122313;1109;104061;-75
2022/11/14 00:50:59;;;;;;;17.00;7.07;;;;;;;7.92;95.20;101771.87;122419;1109;104076;-75
2022/11/14 00:53:50;;;;;;;15.65;7.10;;;;;;;7.92;95.48;101769.25;122391;1108;104146;-75
2022/11/14 00:56:41;;;;;;;15.73;7.43;;;;;;;7.90;95.04;101768.25;122358;1108;104114;-75
2022/11/14 00:59:31;;;;;;;17.57;8.20;;;;;;;7.89;95.34;101771.66;122439;1108;104123;-75
2022/11/14 01:02:23;;;;;;;17.97;8.00;;;;;;;7.87;95.62;101769.77;122454;1109;104188;-75
2022/11/14 01:05:13;;;;;;;17.07;7.80;;;;;;;7.86;95.33;101768.84;122386;1109;104174;-75
2022/11/14 01:08:04;;;;;;;19.03;8.77;;;;;;;7.85;95.23;101760.91;122436;1108;104073;-74
2022/11/14 01:10:55;;;;;;;21.23;9.97;;;;;;;7.84;95.75;101764.34;122373;1109;104560;-74
2022/11/14 01:13:46;;;;;;;17.65;8.70;;;;;;;7.85;95.73;101767.05;122376;1108;104076;-75
2022/11/14 01:16:37;;;;;;;17.83;8.67;;;;;;;7.84;95.63;101770.46;122408;1107;104192;-76
2022/11/14 01:19:28;;;;;;;22.10;10.30;;;;;;;7.83;95.49;101762.52;122634;1108;104492;-73
2022/11/14 01:22:19;;;;;;;23.27;11.83;;;;;;;7.83;95.13;101773.86;122379;1108;104057;-76
2022/11/14 01:25:10;;;;;;;29.40;15.20;;;;;;;7.83;95.60;101783.42;122352;1109;104181;-76
2022/11/14 01:28:01;;;;;;;29.90;16.65;;;;;;;7.82;95.11;101772.08;122494;1109;104449;-75
2022/11/14 01:30:52;;;;;;;35.80;20.90;;;;;;;7.83;95.83;101773.86;122378;1109;104047;-75
2022/11/14 01:33:43;;;;;;;39.07;24.00;;;;;;;7.83;95.59;101771.25;122348;1108;104121;-75
2022/11/14 01:36:34;;;;;;;43.57;25.97;;;;;;;7.83;95.10;101779.09;122340;1108;104152;-75
2022/11/14 01:39:26;;;;;;;42.83;25.17;;;;;;;7.82;95.20;101774.69;122337;1109;104095;-75
2022/11/14 01:42:16;;;;;;;40.47;23.60;;;;;;;7.82;95.47;101777.30;122392;1109;104050;-75
2022/11/14 01:45:37;;;;;;;38.23;21.23;;;;;;;7.80;95.22;101768.43;122436;1109;104447;-76
2022/11/14 01:48:33;;;;;;;36.53;19.37;;;;;;;7.81;95.34;101775.48;122274;1108;108010;-75
2022/11/14 01:51:28;;;;;;;33.43;17.87;;;;;;;7.81;95.57;101770.25;122372;1109;104044;-76
2022/11/14 01:54:24;;;;;;;34.27;17.83;;;;;;;7.80;95.86;101773.66;122375;1109;104067;-74
2022/11/14 01:57:18;;;;;;;30.30;17.15;;;;;;;7.82;95.30;101772.08;122413;1109;104489;-75
2022/11/14 02:00:13;;;;;;;28.35;14.47;;;;;;;7.83;95.20;101758.19;122393;1108;104043;-75
2022/11/14 02:03:04;;;;;;;24.90;12.65;;;;;;;7.83;95.28;101758.19;122424;1108;104338;-74
2022/11/14 02:05:56;;;;;;;23.90;11.80;;;;;;;7.82;95.79;101755.47;122511;1108;104096;-74
2022/11/14 02:08:48;;;;;;;23.27;11.70;;;;;;;7.82;95.25;101755.47;122391;1109;104040;-74
2022/11/14 02:11:42;;;;;;;22.00;10.80;;;;;;;7.82;95.67;101755.47;122440;1109;104047;-74
2022/11/14 02:14:36;;;;;;;20.70;9.80;;;;;;;7.82;95.49;101755.47;122373;1108;104123;-75
2022/11/14 02:17:27;;;;;;;20.03;9.93;;;;;;;7.84;95.43;101748.66;122367;1108;104126;-75
2022/11/14 02:20:21;;;;;;;21.43;10.07;;;;;;;7.84;95.70;101752.16;122519;1108;104064;-74
2022/11/14 02:23:14;;;;;;;20.97;9.93;;;;;;;7.83;95.61;101750.34;122356;1108;104066;-74
2022/11/14 02:26:05;;;;;;;20.73;10.00;;;;;;;7.83;95.76;101747.73;122359;1109;104082;-74
2022/11/14 02:28:56;;;;;;;22.85;10.90;;;;;;;7.84;95.69;101743.44;122357;1109;104069;-74
2022/11/14 02:31:47;;;;;;;21.97;10.00;;;;;;;7.83;95.91;101742.50;122185;1109;104146;-75
2022/11/14 02:34:37;;;;;;;21.70;10.37;;;;;;;7.83;95.57;101742.50;122432;1109;104137;-75
2022/11/14 02:37:28;;;;;;;20.10;9.93;;;;;;;7.82;95.23;101745.95;122360;1108;104543;-75
2022/11/14 02:40:19;;;;;;;23.67;9.80;;;;;;;7.82;95.81;101742.40;122484;1109;104493;-75
2022/11/14 02:43:10;;;;;;;18.53;8.70;;;;;;;7.83;95.86;101733.77;122676;1109;104188;-74
2022/11/14 02:46:01;;;;;;;20.20;9.07;;;;;;;7.81;95.83;101736.28;122354;1109;104329;-76
2022/11/14 02:48:51;;;;;;;20.15;9.35;;;;;;;7.80;95.45;101731.84;122444;1108;104153;-75
2022/11/14 02:51:42;;;;;;;20.00;9.40;;;;;;;7.81;95.22;101725.83;122585;1109;104034;-75
2022/11/14 02:54:33;;;;;;;19.60;9.77;;;;;;;7.81;95.24;101732.77;122499;1108;104069;-74
2022/11/14 02:57:23;;;;;;;19.17;8.20;;;;;;;7.82;95.29;101730.27;122571;1109;104230;-74
2022/11/14 03:00:16;;;;;;;18.33;7.90;;;;;;;7.79;95.92;101729.13;122440;1109;108010;-75
2022/11/14 03:03:07;;;;;;;18.80;7.83;;;;;;;7.78;95.31;101730.85;122472;1109;104059;-75
2022/11/14 03:06:02;;;;;;;19.63;7.90;;;;;;;7.77;95.69;101733.36;122721;1109;104440;-75
2022/11/14 03:08:53;;;;;;;19.67;7.63;;;;;;;7.76;95.48;101732.47;122578;1109;104159;-74
2022/11/14 03:11:43;;;;;;;17.20;7.45;;;;;;;7.77;95.92;101736.87;122559;1109;104073;-74
2022/11/14 03:14:34;;;;;;;16.07;7.10;;;;;;;7.77;95.73;101730.75;122558;1108;104461;-74
2022/11/14 03:17:25;;;;;;;16.00;6.90;;;;;;;7.76;95.95;101729.86;122593;1108;104044;-74
2022/11/14 03:20:16;;;;;;;16.10;6.75;;;;;;;7.77;95.90;101730.75;122397;1109;104056;-74
2022/11/14 03:23:07;;;;;;;18.80;7.67;;;;;;;7.76;95.52;101729.86;122448;1108;104165;-74
2022/11/14 03:26:01;;;;;;;16.40;7.40;;;;;;;7.76;95.71;101735.08;122531;1109;104131;-75
2022/11/14 03:28:54;;;;;;;16.07;7.20;;;;;;;7.76;95.39;101726.31;122416;1109;104041;-74
2022/11/14 03:31:45;;;;;;;17.87;7.13;;;;;;;7.78;95.81;101727.34;122528;1109;104072;-74
2022/11/14 03:34:36;;;;;;;17.60;7.30;;;;;;;7.79;95.44;101718.68;122377;1108;104105;-75
2022/11/14 03:37:26;;;;;;;15.90;7.10;;;;;;;7.78;95.38;101723.02;122479;1104;104142;-74
2022/11/14 03:40:18;;;;;;;16.13;7.63;;;;;;;7.77;95.92;101717.69;122848;1105;104191;-75
2022/11/14 03:43:09;;;;;;;17.80;7.35;;;;;;;7.76;95.39;101711.56;122741;1105;104112;-75
2022/11/14 03:46:01;;;;;;;16.53;7.30;;;;;;;7.76;96.07;101716.79;122466;1105;104123;-74
2022/11/14 03:48:52;;;;;;;17.23;7.43;;;;;;;7.77;95.29;101722.91;122711;1105;104140;-75
2022/11/14 03:51:42;;;;;;;17.93;7.70;;;;;;;7.76;96.07;101716.79;122498;1105;104080;-75
2022/11/14 03:54:33;;;;;;;19.27;8.07;;;;;;;7.76;95.81;101711.56;122401;1105;104165;-77
2022/11/14 03:57:24;;;;;;;17.67;8.37;;;;;;;7.74;95.55;101711.46;122544;1105;104482;-75
2022/11/14 04:00:16;;;;;;;18.70;8.07;;;;;;;7.72;95.80;101706.92;122523;1105;104142;-76
2022/11/14 04:03:07;;;;;;;20.57;8.63;;;;;;;7.72;95.46;101701.70;122760;1105;104070;-74
2022/11/14 04:05:58;;;;;;;17.83;8.60;;;;;;;7.74;95.77;101706.23;122774;1105;104143;-74
2022/11/14 04:08:48;;;;;;;18.70;8.57;;;;;;;7.76;95.75;101705.41;122771;1105;104069;-75
2022/11/14 04:11:39;;;;;;;19.13;9.10;;;;;;;7.77;96.05;101699.39;122563;1105;104226;-75
2022/11/14 04:14:30;;;;;;;20.10;8.90;;;;;;;7.76;95.46;101708.95;122596;1105;104069;-76
2022/11/14 04:17:20;;;;;;;19.17;8.90;;;;;;;7.76;95.76;101708.95;122570;1104;104110;-75
2022/11/14 04:20:14;;;;;;;18.17;8.00;;;;;;;7.77;95.76;101695.06;122475;1105;105233;-75
2022/11/14 04:23:04;;;;;;;19.37;8.80;;;;;;;7.79;95.44;101703.92;122674;1105;104619;-76
2022/11/14 04:25:56;;;;;;;20.80;9.03;;;;;;;7.80;95.59;101702.21;122409;1105;104172;-77
2022/11/14 04:28:47;;;;;;;17.33;8.20;;;;;;;7.81;95.64;101699.70;122729;1106;104066;-77
2022/11/14 04:31:38;;;;;;;19.90;8.83;;;;;;;7.80;96.04;101705.72;122452;1105;104142;-76
2022/11/14 04:34:29;;;;;;;17.40;7.70;;;;;;;7.80;95.62;101699.59;122632;1105;104070;-76
2022/11/14 04:37:19;;;;;;;17.57;7.87;;;;;;;7.79;95.37;101695.16;122590;1105;104143;-76
2022/11/14 04:40:12;;;;;;;17.30;8.10;;;;;;;7.79;95.76;101708.23;122418;1105;104066;-77
2022/11/14 04:43:02;;;;;;;16.43;7.63;;;;;;;7.76;95.61;101703.73;122559;1105;104140;-75
2022/11/14 04:45:53;;;;;;;17.73;8.30;;;;;;;7.75;95.65;101707.13;122750;1105;104073;-76
2022/11/14 04:48:44;;;;;;;19.33;8.70;;;;;;;7.77;95.47;101704.62;122400;1105;105163;-76
2022/11/14 04:51:34;;;;;;;17.57;8.33;;;;;;;7.77;95.77;101705.52;122622;1105;104139;-77
2022/11/14 04:54:25;;;;;;;17.63;8.40;;;;;;;7.79;95.93;101703.92;122394;1105;104152;-76
2022/11/14 04:57:16;;;;;;;17.40;8.40;;;;;;;7.83;95.48;101699.80;122521;1105;104235;-75
2022/11/14 05:00:10;;;;;;;19.50;8.83;;;;;;;7.84;96.14;101705.13;122794;1105;104102;-76
2022/11/14 05:03:01;;;;;;;19.20;9.05;;;;;;;7.88;95.54;101703.61;122788;1105;104063;-76
2022/11/14 05:05:52;;;;;;;19.55;9.40;;;;;;;7.91;95.92;101704.70;122647;1105;104156;-76
2022/11/14 05:08:43;;;;;;;22.30;9.60;;;;;;;7.95;95.53;101705.84;122682;1105;104415;-77
2022/11/14 05:11:34;;;;;;;20.93;9.60;;;;;;;7.99;96.08;101707.82;122820;1105;104949;-76
2022/11/14 05:14:24;;;;;;;19.75;8.70;;;;;;;8.01;96.04;101705.31;122484;1105;104050;-76
2022/11/14 05:17:15;;;;;;;20.80;9.90;;;;;;;8.03;95.80;101708.95;122611;1105;104069;-76
2022/11/14 05:20:07;;;;;;;23.70;9.57;;;;;;;8.03;95.57;101712.45;122532;1105;104137;-76
2022/11/14 05:22:58;;;;;;;21.13;9.90;;;;;;;8.03;95.71;101720.30;122388;1105;104176;-77
2022/11/14 05:25:58;;;;;;;20.90;9.80;;;;;;;8.05;95.95;101716.06;122682;1105;104098;-77
2022/11/14 05:28:49;;;;;;;21.13;9.67;;;;;;;8.07;95.25;101716.17;122529;1105;104056;-75
2022/11/14 05:31:39;;;;;;;21.47;10.07;;;;;;;8.09;96.02;101719.81;122728;1105;104063;-76
2022/11/14 05:34:30;;;;;;;21.40;10.10;;;;;;;8.07;95.60;101724.01;122507;1105;104291;-76
2022/11/14 05:37:21;;;;;;;20.90;10.10;;;;;;;8.10;95.53;101729.44;122597;1105;104166;-77
2022/11/14 05:40:15;;;;;;;21.73;10.47;;;;;;;8.10;95.56;101725.14;122739;1105;104081;-77
2022/11/14 05:43:07;;;;;;;23.00;10.70;;;;;;;8.13;95.41;101737.48;122798;1105;104057;-77
2022/11/14 05:46:02;;;;;;;25.97;10.40;;;;;;;8.16;95.32;101729.84;122902;1105;104024;-75
2022/11/14 05:48:53;;;;;;;25.13;11.23;;;;;;;8.19;95.20;101736.98;122568;1105;104185;-76
2022/11/14 05:51:43;;;;;;;22.57;11.10;;;;;;;8.17;95.67;101738.61;122909;1105;104043;-75
2022/11/14 05:54:34;;;;;;;23.50;11.90;;;;;;;8.16;95.20;101731.56;122672;1109;104163;-75
2022/11/14 05:57:25;;;;;;;29.23;12.70;;;;;;;8.17;95.15;101739.50;122613;1105;104525;-76
2022/11/14 06:00:17;;;;;;;26.50;12.57;;;;;;;8.16;95.01;101732.45;122726;1105;104044;-75
2022/11/14 06:03:09;;;;;;;28.23;13.73;;;;;;;8.16;95.32;101736.79;122795;1105;104147;-75
2022/11/14 06:06:02;;;;;;;27.10;12.77;;;;;;;8.14;95.37;101738.41;122997;1106;104226;-77
2022/11/14 06:08:55;;;;;;;26.47;12.43;;;;;;;8.16;95.40;101742.91;123534;1105;104040;-75
2022/11/14 06:11:48;;;;;;;27.20;12.80;;;;;;;8.16;94.94;101748.14;123659;1105;104032;-74
2022/11/14 06:14:39;;;;;;;32.90;13.30;;;;;;;8.23;95.82;101737.29;123344;1105;104006;-74
2022/11/14 06:17:29;;;;;;;29.20;13.60;;;;;;;8.33;95.52;101745.73;123333;1105;104249;-74
2022/11/14 06:20:21;;;;;;;27.70;13.23;;;;;;;8.38;95.70;101754.77;123048;1105;104309;-74
2022/11/14 06:23:12;;;;;;;31.13;14.23;;;;;;;8.43;95.19;101755.96;123005;1105;104165;-74
2022/11/14 06:26:07;;;;;;;30.70;14.00;;;;;;;8.41;95.34;101752.36;123280;1105;103967;-76
2022/11/14 06:28:59;;;;;;;33.60;13.10;;;;;;;8.36;94.62;101751.16;123381;1106;103967;-77
2022/11/14 06:31:55;;;;;;;28.17;12.97;;;;;;;8.34;95.00;101747.55;124600;1105;103171;-75
2022/11/14 06:34:46;;;;;;;27.97;11.80;;;;;;;8.34;94.85;101742.33;123759;1105;104161;-75
2022/11/14 06:37:38;;;;;;;24.00;11.80;;;;;;;8.37;94.78;101745.14;123670;1105;104064;-75
2022/11/14 06:40:29;;;;;;;25.43;11.73;;;;;;;8.41;94.91;101745.44;123595;1105;103999;-75
2022/11/14 06:43:19;;;;;;;23.13;10.47;;;;;;;8.42;94.84;101752.45;123727;1105;104034;-74
2022/11/14 06:46:13;;;;;;;21.37;10.63;;;;;;;8.42;95.10;101756.79;123885;1105;117695;-75
2022/11/14 06:49:03;;;;;;;23.03;11.50;;;;;;;8.44;94.25;101756.09;123785;1105;103591;-74
2022/11/14 06:51:54;;;;;;;24.13;10.40;;;;;;;8.49;94.97;101747.65;123803;1106;104057;-75
2022/11/14 06:54:45;;;;;;;22.80;10.70;;;;;;;8.52;94.14;101759.20;123814;1105;103955;-74
2022/11/14 06:57:36;;;;;;;21.60;9.50;;;;;;;8.56;94.40;101760.33;124064;1105;104024;-75
2022/11/14 07:00:27;;;;;;;23.00;9.60;;;;;;;8.57;94.06;101760.42;124244;1105;103121;-74
2022/11/14 07:03:21;;;;;;;24.20;10.83;;;;;;;8.60;94.34;101760.62;123895;1105;104504;-75
2022/11/14 07:06:18;;;;;;;20.87;10.30;;;;;;;8.67;94.21;101758.40;123970;1105;102919;-74
2022/11/14 07:09:12;;;;;;;21.97;9.67;;;;;;;8.69;93.65;101762.00;123667;1105;103996;-74
2022/11/14 07:12:03;;;;;;;22.27;10.13;;;;;;;8.79;94.26;101767.03;123920;1105;104052;-76
2022/11/14 07:15:08;;;;;;;23.53;9.37;;;;;;;8.86;94.12;101768.31;123661;1109;105110;-75
2022/11/14 07:18:22;;;;;;;20.10;9.50;;;;;;;8.86;93.64;101771.81;123824;1105;103988;-75
2022/11/14 07:21:47;;;;;;;20.00;9.47;;;;;;;8.94;93.73;101767.99;124737;1105;102112;-75
2022/11/14 07:24:40;;;;;;;23.73;10.13;;;;;;;9.03;93.87;101764.12;123596;1105;104185;-75
2022/11/14 07:27:48;;;;;;;20.53;10.10;;;;;;;9.15;94.31;101763.17;123701;1105;104025;-76
2022/11/14 07:30:55;;;;;;;21.40;9.60;;;;;;;9.28;94.49;101762.20;123585;1109;104695;-76
2022/11/14 07:33:47;;;;;;;24.77;9.63;;;;;;;9.29;93.36;101761.39;124109;1105;103122;-77
2022/11/14 07:36:38;;;;;;;22.00;9.30;;;;;;;9.29;93.71;101760.50;123951;1105;103973;-77
2022/11/14 07:39:29;;;;;;;21.53;9.50;;;;;;;9.25;93.64;101763.73;123976;1105;103953;-75
2022/11/14 07:42:22;;;;;;;19.60;9.13;;;;;;;9.21;92.36;101759.10;124038;1109;103730;-75
2022/11/14 07:45:18;;;;;;;20.53;9.07;;;;;;;9.18;92.67;101765.08;123926;1105;103980;-75
2022/11/14 07:48:22;;;;;;;18.73;9.33;;;;;;;9.18;92.16;101765.08;124104;1106;103958;-76
2022/11/14 07:51:43;;;;;;;21.23;9.37;;;;;;;9.23;92.69;101762.74;125662;1105;102766;-75
2022/11/14 07:54:47;;;;;;;20.80;9.17;;;;;;;9.22;92.07;101761.81;125565;1105;102875;-76
2022/11/14 07:57:40;;;;;;;20.27;8.90;;;;;;;9.24;92.01;101762.84;125580;1104;103579;-76
2022/11/14 08:00:33;;;;;;;20.97;9.45;;;;;;;9.28;92.64;101766.54;125588;1105;101787;-75
2022/11/14 08:03:34;;;;;;;17.80;8.73;;;;;;;9.31;92.28;101762.37;125624;1104;102488;-75
2022/11/14 08:06:25;;;;;;;23.07;9.53;;;;;;;9.35;91.68;101763.50;125614;1105;102589;-74
2022/11/14 08:09:17;;;;;;;23.07;10.00;;;;;;;9.40;92.17;101761.16;125497;1105;102335;-74
2022/11/14 08:12:09;;;;;;;23.47;10.97;;;;;;;9.49;92.19;101761.68;125478;1105;101874;-74
2022/11/14 08:15:01;;;;;;;22.10;9.60;;;;;;;9.58;92.35;101758.72;124045;1105;105381;-75
2022/11/14 08:17:56;;;;;;;21.53;9.10;;;;;;;9.65;92.64;101753.05;123859;1105;102930;-75
2022/11/14 08:20:47;;;;;;;20.23;9.50;;;;;;;9.65;91.95;101759.18;123972;1105;102564;-74
2022/11/14 08:23:44;;;;;;;21.43;8.97;;;;;;;9.75;93.07;101760.62;125484;1105;102600;-76
2022/11/14 08:26:35;;;;;;;22.97;9.90;;;;;;;9.83;92.22;101759.37;125558;1105;101790;-75
2022/11/14 08:29:29;;;;;;;21.83;10.23;;;;;;;9.87;92.38;101749.97;125517;1105;102179;-74
2022/11/14 08:32:24;;;;;;;21.93;9.90;;;;;;;9.93;92.41;101752.05;125461;1104;102727;-74
2022/11/14 08:35:14;;;;;;;;;;;;;;;9.95;91.84;101753.92;125734;1105;102650;-74
2022/11/14 08:38:23;;;;;;;20.43;10.00;;;;;;;9.99;91.97;101757.66;125520;1104;103101;-75
2022/11/14 08:41:47;;;;;;;24.67;9.98;;;;;;;10.10;91.74;101753.92;125587;1104;102371;-73
2022/11/14 08:44:38;;;;;;;23.43;11.23;;;;;;;10.14;91.98;101753.27;125533;1105;102406;-74
2022/11/14 08:47:33;;;;;;;24.67;11.97;;;;;;;10.18;91.32;101744.77;123578;1105;104149;-74
2022/11/14 08:50:27;;;;;;;27.53;13.80;;;;;;;10.19;91.04;101746.59;123940;1105;102267;-73
2022/11/14 08:53:22;;;;;;;26.50;13.37;;;;;;;10.24;91.03;101745.12;123817;1105;103990;-74
2022/11/14 08:56:30;;;;;;;37.43;15.33;;;;;;;10.36;91.27;101737.09;124004;1105;102373;-74
2022/11/14 08:59:42;;;;;;;25.57;12.67;;;;;;;10.54;92.09;101738.92;124190;1105;102697;-75
2022/11/14 09:02:34;;;;;;;19.30;9.53;;;;;;;10.62;91.09;101734.99;124290;1105;104162;-75
2022/11/14 09:05:28;;;;;;;19.93;9.90;;;;;;;10.66;90.77;101736.05;123802;1105;104053;-74
2022/11/14 09:08:19;;;;;;;22.33;9.83;;;;;;;10.71;91.71;101727.63;123915;1106;102645;-75
2022/11/14 09:11:10;;;;;;;18.43;9.00;;;;;;;10.73;88.78;101723.35;123920;1105;102473;-75
2022/11/14 09:14:10;;;;;;;17.80;8.37;;;;;;;10.78;89.09;101715.72;123769;1106;103649;-75
2022/11/14 09:17:02;;;;;;;21.23;8.33;;;;;;;10.87;90.09;101720.58;124251;1105;103967;-75
2022/11/14 09:19:59;;;;;;;17.30;8.23;;;;;;;10.93;88.69;101713.93;124176;1105;103043;-74
2022/11/14 09:26:55;;;;;;;17.13;8.30;;;;;;;11.02;88.40;101702.13;124100;1102;102360;-75
2022/11/14 09:29:45;;;;;;;16.50;7.53;;;;;;;11.12;88.43;101701.77;123797;1102;104169;-75
2022/11/14 09:32:41;;;;;;;15.63;8.00;;;;;;;11.24;88.96;101698.91;124062;1102;102528;-75
2022/11/14 09:35:33;;;;;;;19.10;8.23;;;;;;;11.31;88.99;101696.67;125609;1102;104266;-76
2022/11/14 09:38:24;;;;;;;19.63;9.43;;;;;;;11.44;88.48;101697.31;124007;1102;104153;-76
2022/11/14 09:41:24;;;;;;;14.77;7.30;;;;;;;11.49;87.28;101696.70;124075;1102;103465;-75
2022/11/14 09:44:37;;;;;;;15.93;8.10;;;;;;;11.65;88.06;101693.11;124155;1102;104233;-76
2022/11/14 09:47:32;;;;;;;15.57;7.73;;;;;;;11.76;87.09;101685.77;124179;1105;102148;-76
2022/11/14 09:50:28;;;;;;;17.53;7.83;;;;;;;11.85;86.13;101686.22;124245;1102;104195;-77
2022/11/14 09:53:23;;;;;;;17.60;7.20;;;;;;;11.88;86.15;101683.74;124227;1105;104274;-75
2022/11/14 09:56:17;;;;;;;14.80;7.90;;;;;;;11.86;85.81;101688.03;124095;1102;104393;-74
2022/11/14 09:59:10;;;;;;;15.18;6.95;;;;;;;11.78;84.62;101684.13;124111;1102;104226;-74
2022/11/14 10:02:05;;;;;;;15.13;6.50;;;;;;;11.66;83.30;101675.62;124214;1102;104096;-76
2022/11/14 10:05:11;;;;;;;14.00;6.70;;;;;;;11.59;84.47;101670.87;124140;1102;104169;-76
2022/11/14 10:08:14;;;;;;;10.70;5.67;;;;;;;11.56;83.49;101676.91;124089;1102;104214;-75
2022/11/14 10:11:10;;;;;;;12.00;6.30;;;;;;;11.57;83.39;101672.54;124332;1102;103044;-75
2022/11/14 10:14:22;;;;;;;10.65;6.00;;;;;;;11.72;83.53;101668.05;124326;1102;103901;-77
2022/11/14 10:18:01;;;;;;;;;;;;;;;;;;;;;
2022/11/14 10:21:13;;;;;;;10.50;5.37;;;;;;;12.11;83.33;101655.07;125535;1105;104752;-76
2022/11/14 10:24:55;;;;;;;;;;;;;;;;;;;;;
2022/11/14 10:28:20;;;;;;;15.63;6.30;;;;;;;12.39;82.79;101648.48;125579;1102;102921;-76
2022/11/14 10:31:34;;;;;;;;;;;;;;;;;;;;;
2022/11/14 10:34:29;;;;;;;13.77;6.30;;;;;;;12.40;81.46;101645.00;125707;1102;102453;-75
2022/11/14 10:41:09;;;;;;;12.10;6.43;;;;;;;12.48;80.29;101640.09;125989;1105;102392;-75
2022/11/14 10:47:38;;;;;;;12.33;6.00;;;;;;;12.38;80.97;101631.77;125662;1102;101881;-74
2022/11/14 10:50:42;;;;;;;12.33;5.67;;;;;;;12.45;81.04;101640.88;125713;1102;102671;-74
2022/11/14 10:53:40;;;;;;;12.03;5.80;;;;;;;12.56;80.78;101631.73;124216;1105;104232;-75
2022/11/14 10:56:29;;;;;;;8.90;5.40;;;;;;;12.53;78.49;101626.32;123971;1103;104255;-74
2022/11/14 10:59:17;;;;;;;13.60;5.63;;;;;;;12.49;79.72;101627.00;124116;1102;104169;-74
2022/11/14 11:02:06;;;;;;;10.30;5.53;;;;;;;12.47;79.28;101623.41;124166;1102;104197;-74
2022/11/14 11:05:20;;;;;;;13.03;6.27;;;;;;;12.47;79.47;101623.41;124239;1104;104322;-74
2022/11/14 11:11:56;;;;;;;8.67;5.17;;;;;;;12.55;79.38;101615.86;124371;1102;104275;-75
2022/11/14 11:14:44;;;;;;;;;;;;;;;12.56;79.20;101617.67;125848;1104;102101;-75
2022/11/14 11:17:34;;;;;;;11.10;5.47;;;;;;;12.63;80.02;101608.31;125949;1102;102610;-75
2022/11/14 11:24:54;;;;;;;14.07;5.63;;;;;;;12.68;79.20;101607.66;125419;1102;102973;-75
2022/11/14 11:28:29;;;;;;;11.93;5.73;;;;;;;12.74;79.82;101610.57;124895;1106;104066;-76
2022/11/14 11:31:49;;;;;;;11.90;5.60;;;;;;;12.82;79.95;101605.64;124756;1109;104358;-78
2022/11/14 11:34:43;;;;;;;10.47;5.73;;;;;;;12.97;79.32;101607.17;125244;1103;102438;-76
2022/11/14 11:37:47;;;;;;;10.85;5.83;;;;;;;13.10;79.35;101607.77;124361;1102;103194;-76
2022/11/14 11:40:50;;;;;;;11.77;5.83;;;;;;;13.18;79.29;101599.27;124212;1102;104185;-76
2022/11/14 11:43:50;;;;;;;9.13;5.30;;;;;;;13.21;79.11;101597.66;124234;1102;107784;-77
2022/11/14 11:46:57;;;;;;;12.33;6.00;;;;;;;13.23;79.57;101596.02;124086;1102;104274;-75
2022/11/14 11:49:48;;;;;;;10.27;6.00;;;;;;;13.20;77.05;101597.59;124990;1105;104256;-75
2022/11/14 11:53:22;;;;;;;17.87;6.07;;;;;;;13.13;77.31;101593.81;125025;1102;104207;-75
2022/11/14 11:57:38;;;;;;;12.90;5.50;;;;;;;13.04;77.65;101589.06;124939;1106;119325;-75
2022/11/14 12:00:28;;;;;;;11.28;5.37;;;;;;;12.95;77.48;101586.03;125127;1102;104230;-76
2022/11/14 12:07:20;;;;;;;9.83;5.83;;;;;;;12.67;76.52;101579.55;124062;1103;104246;-76
2022/11/14 12:14:27;;;;;;;;;;;;;;;;;;;;;
2022/11/14 12:21:53;;;;;;;13.43;6.27;;;;;;;12.43;76.58;101579.33;124054;1109;104275;-77
2022/11/14 12:33:24;;;;;;;14.47;6.40;;;;;;;12.51;75.82;101567.44;124888;1105;104306;-76
2022/11/14 12:40:24;;;;;;;11.23;5.90;;;;;;;12.45;75.52;101567.16;124186;1102;102498;-73
2022/11/14 12:43:30;;;;;;;13.60;6.40;;;;;;;12.38;75.41;101575.60;123876;1102;104201;-73
2022/11/14 12:46:22;;;;;;;13.43;5.80;;;;;;;12.26;73.48;101580.30;124108;1102;104169;-72
2022/11/14 12:49:40;;;;;;;14.87;6.37;;;;;;;12.15;74.00;101572.80;123709;1102;105271;-74
2022/11/14 12:52:49;;;;;;;12.80;5.73;;;;;;;12.09;74.50;101561.09;126185;1101;103317;-76
2022/11/14 12:56:11;;;;;;;13.27;6.10;;;;;;;12.07;74.59;101568.03;126085;1102;101931;-76
2022/11/14 12:59:41;;;;;;;11.90;6.07;;;;;;;12.04;74.63;101566.15;125958;1101;103009;-76
2022/11/14 13:02:56;;;;;;;8.83;5.23;;;;;;;11.95;73.92;101569.27;125962;1102;102812;-76
2022/11/14 13:05:52;;;;;;;;;;;;;;;11.89;72.37;101566.31;126307;1101;103498;-77
2022/11/14 13:09:12;;;;;;;13.83;7.20;;;;;;;11.85;73.57;101564.35;126074;1101;102899;-75
2022/11/14 13:22:38;;;;;;;14.87;6.43;;;;;;;11.79;73.84;101557.06;125901;1102;102011;-75
2022/11/14 13:25:33;;;;;;;12.33;6.13;;;;;;;11.81;74.15;101558.05;125846;1102;102540;-76
2022/11/14 13:28:56;;;;;;;12.10;6.40;;;;;;;11.84;74.03;101562.54;126009;1102;102445;-76
2022/11/14 13:31:56;;;;;;;13.07;6.60;;;;;;;11.89;74.28;101566.31;125982;1102;110475;-74
2022/11/14 13:34:58;;;;;;;14.37;6.90;;;;;;;11.97;74.52;101558.81;126311;1102;102735;-74
2022/11/14 13:38:00;;;;;;;21.83;6.77;;;;;;;11.98;74.26;101557.97;123945;1102;104210;-74
2022/11/14 13:41:05;;;;;;;23.13;6.97;;;;;;;12.01;74.22;101555.48;123764;1102;105153;-73
2022/11/14 13:44:28;;;;;;;14.60;6.63;;;;;;;11.96;74.61;101544.74;124328;1102;102731;-75
2022/11/14 13:48:08;;;;;;;13.73;7.10;;;;;;;12.02;74.19;101559.92;124090;1102;104169;-73
2022/11/14 13:51:04;;;;;;;15.57;6.60;;;;;;;11.96;74.14;101554.38;124531;1102;103619;-73
2022/11/14 13:53:53;;;;;;;18.83;6.80;;;;;;;11.92;74.01;101557.64;123851;1102;117879;-75
2022/11/14 13:56:51;;;;;;;17.67;7.87;;;;;;;11.86;73.81;101555.64;123999;1102;102420;-75
2022/11/14 14:00:12;;;;;;;15.93;8.43;;;;;;;11.82;73.69;101559.84;125851;1101;102633;-74
2022/11/14 14:03:30;;;;;;;17.30;9.30;;;;;;;11.78;73.57;101560.54;125818;1102;101966;-74
2022/11/14 14:06:40;;;;;;;18.40;10.40;;;;;;;11.69;73.20;101560.98;125921;1102;101431;-75
2022/11/14 14:09:43;;;;;;;18.60;10.10;;;;;;;11.66;73.74;101563.47;125965;1102;104153;-76
2022/11/14 14:12:44;;;;;;;18.87;9.97;;;;;;;11.66;74.11;101560.84;126086;1102;102242;-76
2022/11/14 14:15:52;;;;;;;21.53;10.77;;;;;;;11.65;73.56;101564.28;126093;1101;102293;-74
2022/11/14 14:19:11;;;;;;;25.00;12.97;;;;;;;11.58;73.78;101569.20;126117;1101;102757;-73
2022/11/14 14:22:27;;;;;;;25.50;14.77;;;;;;;11.44;73.73;101571.16;126153;1102;101940;-74